Time;durP1;ratioP1;P1;durP2;ratioP2;P2;SDS_P1;SDS_P2;PMS_P1;PMS_P2;Temp;Humidity;BMP_temperature;BMP_pressure;BME280_temperature;BME280_humidity;BME280_pressure;Samples;Min_cycle;Max_cycle;Signal;HPM_P1;HPM_P2
2022/05/04 00:02:25;;;;;;;5.57;4.93;;;11.70;99.90;;;;;;4902179;29;20297;-76
2022/05/04 00:04:51;;;;;;;5.80;5.30;;;11.60;99.90;;;;;;4902207;29;20232;-76
2022/05/04 00:07:17;;;;;;;6.10;5.37;;;11.70;99.90;;;;;;4886561;29;20269;-76
2022/05/04 00:09:42;;;;;;;6.13;5.50;;;11.70;99.90;;;;;;4886468;29;20190;-76
2022/05/04 00:12:08;;;;;;;5.30;4.80;;;11.70;99.90;;;;;;4870611;29;20717;-76
2022/05/04 00:14:34;;;;;;;5.63;5.10;;;11.70;99.90;;;;;;4871088;29;20211;-76
2022/05/04 00:16:59;;;;;;;5.90;5.40;;;11.50;99.90;;;;;;4886707;29;20197;-76
2022/05/04 00:19:25;;;;;;;5.87;4.80;;;11.60;99.90;;;;;;4870977;29;20186;-75
2022/05/04 00:21:51;;;;;;;4.93;4.53;;;11.70;99.90;;;;;;4870461;29;20237;-75
2022/05/04 00:24:19;;;;;;;5.70;5.20;;;11.70;99.90;;;;;;4918706;29;20218;-76
2022/05/04 00:26:46;;;;;;;5.87;5.03;;;11.70;99.90;;;;;;4886538;29;20189;-76
2022/05/04 00:29:11;;;;;;;6.30;4.90;;;11.80;99.90;;;;;;4886112;29;20566;-76
2022/05/04 00:31:37;;;;;;;5.90;5.30;;;11.90;99.90;;;;;;4918469;29;20537;-76
2022/05/04 00:34:03;;;;;;;6.83;4.80;;;12.00;99.90;;;;;;4886057;29;20253;-76
2022/05/04 00:36:29;;;;;;;6.33;4.90;;;12.00;99.90;;;;;;4918571;29;20263;-76
2022/05/04 00:38:54;;;;;;;5.80;5.20;;;11.90;99.90;;;;;;4901566;29;20182;-76
2022/05/04 00:41:20;;;;;;;5.57;4.93;;;11.90;99.90;;;;;;4870279;29;20277;-76
2022/05/04 00:43:53;;;;;;;5.20;4.70;;;11.80;99.90;;;;;;4885785;29;20190;-76
2022/05/04 00:46:20;;;;;;;7.10;4.80;;;11.80;99.90;;;;;;4885789;29;20192;-76
2022/05/04 00:48:46;;;;;;;5.87;5.23;;;11.90;99.90;;;;;;4885814;29;20186;-75
2022/05/04 00:51:11;;;;;;;5.30;4.80;;;12.00;99.90;;;;;;4901172;29;20233;-76
2022/05/04 00:53:40;;;;;;;6.80;5.00;;;12.00;99.90;;;;;;4901000;29;20250;-76
2022/05/04 00:56:08;;;;;;;6.20;4.80;;;12.10;99.90;;;;;;4901023;29;20190;-76
2022/05/04 01:01:20;;;;;;;6.77;5.17;;;12.20;99.90;;;;;;4904217;29;20290;-76
2022/05/04 01:03:46;;;;;;;5.27;4.77;;;12.00;99.90;;;;;;4885401;29;20182;-76
2022/05/04 01:06:12;;;;;;;6.77;5.03;;;12.00;99.90;;;;;;4885649;29;20598;-76
2022/05/04 01:08:38;;;;;;;5.57;5.00;;;12.10;99.90;;;;;;4885601;29;20182;-76
2022/05/04 01:11:04;;;;;;;5.40;4.90;;;12.00;99.90;;;;;;4900621;29;20194;-76
2022/05/04 01:13:30;;;;;;;7.27;5.53;;;12.00;99.90;;;;;;4900913;29;20186;-76
2022/05/04 01:15:56;;;;;;;6.13;5.20;;;12.10;99.90;;;;;;4870095;29;20293;-76
2022/05/04 01:18:22;;;;;;;6.43;4.87;;;12.10;99.90;;;;;;4885364;29;20288;-76
2022/05/04 01:20:48;;;;;;;6.43;5.10;;;12.20;99.90;;;;;;4900756;29;20202;-76
2022/05/04 01:23:14;;;;;;;7.13;5.40;;;12.00;99.90;;;;;;4884953;29;20187;-76
2022/05/04 01:25:39;;;;;;;6.00;5.23;;;11.90;99.90;;;;;;4900689;29;20223;-76
2022/05/04 01:28:05;;;;;;;5.80;4.87;;;11.70;99.90;;;;;;4885378;29;20201;-76
2022/05/04 01:30:32;;;;;;;7.57;5.30;;;11.60;99.90;;;;;;4869630;29;20653;-76
2022/05/04 01:32:59;;;;;;;5.40;4.90;;;11.50;99.90;;;;;;4900306;29;20186;-76
2022/05/04 01:35:25;;;;;;;5.30;4.80;;;11.50;99.90;;;;;;4917237;29;20534;-76
2022/05/04 01:37:51;;;;;;;6.57;4.97;;;11.50;99.90;;;;;;4900599;29;20185;-76
2022/05/04 01:40:16;;;;;;;6.17;5.03;;;11.50;99.90;;;;;;4869598;29;20186;-76
2022/05/04 01:42:42;;;;;;;5.43;4.73;;;11.50;99.90;;;;;;4884631;29;20252;-76
2022/05/04 01:45:09;;;;;;;5.90;4.97;;;11.40;99.90;;;;;;4884733;29;20673;-76
2022/05/04 01:47:35;;;;;;;6.37;4.90;;;11.30;99.90;;;;;;4885027;29;20256;-76
2022/05/04 01:50:02;;;;;;;5.33;4.50;;;11.20;99.90;;;;;;4900083;29;20261;-76
2022/05/04 01:52:27;;;;;;;5.10;4.57;;;11.30;99.90;;;;;;4869272;29;20242;-76
2022/05/04 01:54:53;;;;;;;5.33;4.83;;;11.30;99.90;;;;;;4884615;29;20207;-76
2022/05/04 01:57:21;;;;;;;5.00;4.50;;;11.20;99.90;;;;;;4917027;29;20190;-76
2022/05/04 01:59:47;;;;;;;5.07;4.27;;;11.30;99.90;;;;;;4884730;29;20381;-76
2022/05/04 02:02:13;;;;;;;6.63;4.90;;;11.30;99.90;;;;;;4884306;29;20673;-76
2022/05/04 02:04:40;;;;;;;5.37;4.87;;;11.20;99.90;;;;;;4899921;29;20230;-76
2022/05/04 02:07:08;;;;;;;4.93;4.43;;;11.20;99.90;;;;;;4884394;29;20179;-76
2022/05/04 02:09:36;;;;;;;4.83;4.23;;;11.20;99.90;;;;;;4899967;29;20182;-76
2022/05/04 02:12:05;;;;;;;5.03;4.53;;;11.10;99.90;;;;;;4899709;29;20182;-76
2022/05/04 02:14:34;;;;;;;5.07;4.50;;;11.00;99.90;;;;;;4884601;29;20206;-76
2022/05/04 02:17:00;;;;;;;6.37;4.73;;;10.90;99.90;;;;;;4884190;29;20186;-76
2022/05/04 02:19:26;;;;;;;5.50;5.00;;;10.80;99.90;;;;;;4899817;29;20229;-76
2022/05/04 02:21:52;;;;;;;5.67;4.50;;;10.70;99.90;;;;;;4868119;29;20214;-76
2022/05/04 02:24:18;;;;;;;5.60;4.60;;;10.80;99.90;;;;;;4916190;29;20297;-76
2022/05/04 02:26:43;;;;;;;4.90;4.40;;;10.90;99.90;;;;;;4899775;29;20219;-76
2022/05/04 02:29:09;;;;;;;6.93;4.83;;;10.80;99.90;;;;;;4899454;29;20185;-76
2022/05/04 02:31:34;;;;;;;7.37;5.10;;;10.80;99.90;;;;;;4868692;29;20187;-76
2022/05/04 02:34:00;;;;;;;6.03;4.80;;;10.80;99.90;;;;;;4883916;29;20210;-76
2022/05/04 02:39:10;;;;;;;5.10;4.60;;;10.70;99.90;;;;;;4916636;29;20221;-76
2022/05/04 02:41:35;;;;;;;6.13;4.63;;;10.70;99.90;;;;;;4868495;29;20214;-76
2022/05/04 02:44:01;;;;;;;6.47;5.20;;;10.80;99.90;;;;;;4883685;29;20207;-76
2022/05/04 02:46:28;;;;;;;5.57;4.97;;;10.80;99.90;;;;;;4883686;29;20201;-76
2022/05/04 02:48:54;;;;;;;5.10;4.60;;;10.90;99.90;;;;;;4883901;29;20183;-76
2022/05/04 02:51:20;;;;;;;5.60;4.87;;;10.80;99.90;;;;;;4883641;29;20265;-76
2022/05/04 02:53:45;;;;;;;5.20;4.70;;;10.80;99.90;;;;;;4899157;29;20591;-76
2022/05/04 02:56:13;;;;;;;6.37;5.17;;;10.70;99.90;;;;;;4868166;29;20206;-76
2022/05/04 02:58:39;;;;;;;6.03;5.43;;;10.50;99.90;;;;;;4868667;29;20246;-76
2022/05/04 03:03:57;;;;;;;6.30;5.17;;;10.40;99.90;;;;;;4916267;29;20209;-75
2022/05/04 03:06:23;;;;;;;5.37;4.87;;;10.50;99.90;;;;;;4899065;29;20176;-75
2022/05/04 03:08:49;;;;;;;5.97;5.37;;;10.50;99.90;;;;;;4898951;29;20261;-75
2022/05/04 03:13:59;;;;;;;7.00;5.40;;;10.30;99.90;;;;;;4901714;29;20213;-75
2022/05/04 03:16:25;;;;;;;5.70;5.13;;;10.20;99.90;;;;;;4883635;29;20177;-75
2022/05/04 03:18:51;;;;;;;5.90;5.27;;;10.00;99.90;;;;;;4883547;29;20226;-75
2022/05/04 03:21:17;;;;;;;5.97;5.43;;;9.90;99.90;;;;;;4898825;29;20293;-75
2022/05/04 03:23:42;;;;;;;8.07;5.60;;;9.80;99.90;;;;;;4867491;29;20235;-76
2022/05/04 03:26:08;;;;;;;6.53;5.47;;;9.80;99.90;;;;;;4906495;23;20232;-75
2022/05/04 03:28:34;;;;;;;5.10;4.70;;;9.80;99.90;;;;;;4899162;29;20586;-76
2022/05/04 03:31:00;;;;;;;5.53;5.03;;;9.70;99.90;;;;;;4868091;29;20656;-75
2022/05/04 03:33:25;;;;;;;6.60;5.67;;;9.80;99.90;;;;;;4883830;29;20220;-75
2022/05/04 03:35:51;;;;;;;6.23;5.43;;;9.80;99.90;;;;;;4868867;29;20201;-75
2022/05/04 03:38:17;;;;;;;7.17;5.80;;;9.90;99.90;;;;;;4868348;29;20238;-76
2022/05/04 03:40:43;;;;;;;7.03;6.17;;;9.90;99.90;;;;;;4884052;29;20190;-75
2022/05/04 03:43:08;;;;;;;7.37;6.20;;;10.00;99.90;;;;;;4853057;29;20234;-75
2022/05/04 03:45:34;;;;;;;6.50;5.90;;;10.00;99.90;;;;;;4853354;29;20290;-76
2022/05/04 03:48:00;;;;;;;5.77;5.20;;;10.10;99.90;;;;;;4868656;29;20181;-75
2022/05/04 03:50:25;;;;;;;7.87;5.73;;;10.10;99.90;;;;;;4868080;29;20269;-76
2022/05/04 03:52:51;;;;;;;6.00;5.40;;;10.00;99.90;;;;;;4883700;29;20183;-75
2022/05/04 03:55:17;;;;;;;7.00;6.23;;;10.00;99.90;;;;;;4853210;29;20202;-76
2022/05/04 03:57:42;;;;;;;5.97;5.10;;;10.10;99.90;;;;;;4853173;29;20273;-75
2022/05/04 04:00:09;;;;;;;5.77;5.27;;;10.10;99.90;;;;;;4852816;29;20189;-76
2022/05/04 04:02:35;;;;;;;5.43;4.93;;;10.20;99.90;;;;;;4868326;29;20226;-75
2022/05/04 04:05:01;;;;;;;7.23;6.00;;;10.20;99.90;;;;;;4900381;29;20266;-75
2022/05/04 04:07:27;;;;;;;6.17;5.50;;;10.00;99.90;;;;;;4883366;29;20282;-75
2022/05/04 04:09:52;;;;;;;6.80;6.10;;;9.80;99.90;;;;;;4883639;29;20180;-75
2022/05/04 04:12:18;;;;;;;6.37;5.00;;;9.80;99.90;;;;;;4852392;29;20184;-75
2022/05/04 04:14:44;;;;;;;5.67;5.17;;;9.80;99.90;;;;;;4867976;29;20263;-75
2022/05/04 04:17:09;;;;;;;6.93;5.67;;;9.80;99.90;;;;;;4883680;29;20307;-75
2022/05/04 04:19:35;;;;;;;5.60;5.00;;;9.90;99.90;;;;;;4852574;29;20195;-75
2022/05/04 04:22:01;;;;;;;6.63;4.83;;;10.00;99.90;;;;;;4852098;29;20211;-75
2022/05/04 04:24:27;;;;;;;5.23;4.63;;;10.10;99.90;;;;;;4852389;29;20693;-76
2022/05/04 04:26:53;;;;;;;7.17;5.60;;;10.10;99.90;;;;;;4852516;29;20193;-76
2022/05/04 04:29:19;;;;;;;7.03;5.00;;;10.30;99.90;;;;;;4867845;29;20186;-77
2022/05/04 04:31:44;;;;;;;5.27;4.77;;;10.40;99.90;;;;;;4898626;29;20190;-77
2022/05/04 04:34:10;;;;;;;6.47;5.60;;;10.30;99.90;;;;;;4867512;29;20195;-77
2022/05/04 04:36:36;;;;;;;6.30;5.70;;;10.30;99.90;;;;;;4882993;29;20208;-77
2022/05/04 04:39:01;;;;;;;6.90;4.80;;;10.30;99.90;;;;;;4867853;29;20246;-76
2022/05/04 04:41:27;;;;;;;5.20;4.40;;;10.40;99.90;;;;;;4851814;29;20217;-76
2022/05/04 04:43:53;;;;;;;5.47;4.80;;;10.90;99.90;;;;;;4867105;29;20191;-76
2022/05/04 04:46:18;;;;;;;5.20;4.57;;;11.40;99.90;;;;;;4851239;29;20229;-76
2022/05/04 04:48:44;;;;;;;5.00;4.50;;;11.80;99.90;;;;;;4852099;29;20247;-77
2022/05/04 04:51:10;;;;;;;5.70;5.20;;;12.10;99.90;;;;;;4867159;29;20183;-77
2022/05/04 04:53:35;;;;;;;6.60;4.93;;;12.30;99.90;;;;;;4882915;29;20618;-77
2022/05/04 04:56:01;;;;;;;6.03;5.40;;;12.60;99.90;;;;;;4882996;29;20674;-77
2022/05/04 04:58:26;;;;;;;6.10;5.50;;;12.40;99.90;;;;;;4851910;29;20195;-78
2022/05/04 05:00:52;;;;;;;5.50;5.00;;;12.20;99.90;;;;;;4882600;29;20264;-77
2022/05/04 05:03:18;;;;;;;7.57;5.40;;;11.90;99.90;;;;;;4882458;29;20190;-77
2022/05/04 05:05:44;;;;;;;6.47;5.87;;;11.70;99.90;;;;;;4851646;29;20337;-77
2022/05/04 05:08:11;;;;;;;6.63;4.70;;;11.60;99.90;;;;;;4866870;29;20210;-77
2022/05/04 05:10:38;;;;;;;6.73;5.90;;;11.50;99.90;;;;;;4882498;29;20183;-77
2022/05/04 05:13:04;;;;;;;7.57;5.73;;;11.40;99.90;;;;;;4897751;29;20266;-78
2022/05/04 05:18:15;;;;;;;7.37;6.20;;;11.30;99.90;;;;;;4885125;29;20190;-77
2022/05/04 05:20:40;;;;;;;6.90;5.87;;;11.20;99.90;;;;;;4897843;29;20190;-77
2022/05/04 05:23:06;;;;;;;7.07;6.27;;;11.30;99.90;;;;;;4851105;29;20187;-78
2022/05/04 05:25:33;;;;;;;9.23;6.40;;;11.20;99.90;;;;;;4881904;29;20609;-77
2022/05/04 05:27:58;;;;;;;7.03;6.33;;;11.20;99.90;;;;;;4866709;29;20231;-77
2022/05/04 05:30:25;;;;;;;6.90;6.20;;;11.30;99.90;;;;;;4898065;29;20175;-77
2022/05/04 05:32:50;;;;;;;7.00;6.30;;;11.30;99.90;;;;;;4866231;29;20197;-78
2022/05/04 05:35:16;;;;;;;7.37;6.60;;;11.20;99.90;;;;;;4897569;29;20203;-76
2022/05/04 05:37:42;;;;;;;8.03;6.30;;;11.30;99.90;;;;;;4881853;29;20183;-75
2022/05/04 05:40:08;;;;;;;7.07;6.30;;;11.30;99.90;;;;;;4881848;29;20187;-75
2022/05/04 05:42:35;;;;;;;7.10;6.00;;;11.40;99.90;;;;;;4881604;29;20246;-77
2022/05/04 05:45:01;;;;;;;6.87;6.27;;;11.40;99.90;;;;;;4881795;29;20201;-77
2022/05/04 05:47:26;;;;;;;6.93;6.23;;;11.30;99.90;;;;;;4881663;29;20180;-77
2022/05/04 05:49:52;;;;;;;7.43;6.73;;;11.30;99.90;;;;;;4881396;29;20265;-76
2022/05/04 05:52:18;;;;;;;8.50;6.80;;;11.10;99.90;;;;;;4881761;29;20187;-76
2022/05/04 05:54:43;;;;;;;7.73;6.97;;;11.00;99.90;;;;;;4850473;29;20214;-76
2022/05/04 05:57:09;;;;;;;7.93;7.10;;;11.10;99.90;;;;;;4850218;29;20187;-76
2022/05/04 05:59:35;;;;;;;7.03;6.37;;;11.00;99.90;;;;;;4850659;29;20233;-77
2022/05/04 06:02:00;;;;;;;7.30;6.60;;;11.10;99.90;;;;;;4866635;29;20238;-78
2022/05/04 06:04:26;;;;;;;8.00;6.10;;;11.20;99.90;;;;;;4882559;29;20202;-78
2022/05/04 06:06:52;;;;;;;7.60;6.53;;;11.20;99.90;;;;;;4854572;29;20239;-78
2022/05/04 06:09:18;;;;;;;7.90;6.97;;;11.20;99.90;;;;;;4869806;29;20197;-78
2022/05/04 06:11:43;;;;;;;7.00;6.27;;;11.20;99.90;;;;;;4884737;29;20190;-78
2022/05/04 06:14:11;;;;;;;8.37;6.27;;;11.30;99.90;;;;;;4852900;29;20247;-78
2022/05/04 06:16:37;;;;;;;9.87;6.67;;;11.30;99.90;;;;;;4898246;29;20654;-78
2022/05/04 06:19:03;;;;;;;8.00;6.07;;;11.30;99.90;;;;;;4898266;29;20553;-78
2022/05/04 06:21:29;;;;;;;9.03;6.53;;;11.40;99.90;;;;;;4867817;29;20701;-78
2022/05/04 06:23:58;;;;;;;7.10;6.00;;;11.60;99.90;;;;;;4851117;29;20271;-78
2022/05/04 06:26:23;;;;;;;7.40;5.90;;;11.60;99.90;;;;;;4866540;29;20219;-78
2022/05/04 06:28:49;;;;;;;7.50;6.43;;;11.70;99.90;;;;;;4850669;29;20661;-77
2022/05/04 06:34:10;;;;;;;7.03;6.20;;;11.80;99.90;;;;;;4898296;29;20274;-77
2022/05/04 06:36:40;;;;;;;7.07;6.33;;;11.80;99.90;;;;;;4882537;29;20183;-77
2022/05/04 06:39:07;;;;;;;9.03;7.07;;;11.80;99.90;;;;;;4896879;29;20184;-78
2022/05/04 06:41:36;;;;;;;7.27;6.10;;;11.60;99.90;;;;;;4896876;29;20301;-79
2022/05/04 06:44:03;;;;;;;7.63;6.53;;;11.50;99.90;;;;;;4866004;29;20183;-78
2022/05/04 06:46:29;;;;;;;14.23;7.20;;;11.60;99.90;;;;;;4896805;29;20179;-78
2022/05/04 06:48:54;;;;;;;10.67;6.40;;;11.70;99.90;;;;;;4850409;29;20242;-78
2022/05/04 06:51:20;;;;;;;9.10;6.27;;;11.80;99.90;;;;;;4850040;29;20195;-78
2022/05/04 06:53:46;;;;;;;8.47;6.57;;;12.00;99.90;;;;;;4896548;29;20658;-78
2022/05/04 06:56:12;;;;;;;8.17;6.20;;;12.20;99.90;;;;;;4896616;29;20206;-78
2022/05/04 06:58:37;;;;;;;8.87;6.10;;;12.30;99.90;;;;;;4850432;29;20186;-81
2022/05/04 07:01:05;;;;;;;7.63;6.40;;;12.40;99.90;;;;;;4866823;29;20211;-78
2022/05/04 07:03:31;;;;;;;7.00;6.30;;;12.40;99.90;;;;;;4882302;29;20191;-79
2022/05/04 07:05:58;;;;;;;7.67;6.20;;;12.50;99.90;;;;;;4883102;29;20204;-78
2022/05/04 07:08:23;;;;;;;8.10;6.47;;;12.60;99.90;;;;;;4882631;29;20198;-78
2022/05/04 07:10:50;;;;;;;7.10;5.70;;;12.70;99.90;;;;;;4882046;29;20245;-77
2022/05/04 07:13:17;;;;;;;7.53;6.00;;;12.80;99.90;;;;;;4895767;29;20228;-77
2022/05/04 07:15:43;;;;;;;7.40;6.37;;;12.80;99.90;;;;;;4896027;29;20210;-77
2022/05/04 07:18:08;;;;;;;7.67;6.20;;;12.80;99.90;;;;;;4880342;29;20188;-77
2022/05/04 07:20:34;;;;;;;7.87;6.27;;;12.80;99.90;;;;;;4864914;29;20671;-77
2022/05/04 07:23:00;;;;;;;8.63;6.13;;;12.90;99.90;;;;;;4849221;29;20220;-78
2022/05/04 07:25:25;;;;;;;7.47;5.80;;;12.80;99.90;;;;;;4849489;29;20223;-77
2022/05/04 07:27:51;;;;;;;7.50;6.30;;;12.90;99.90;;;;;;4864813;29;20179;-77
2022/05/04 07:30:17;;;;;;;7.60;5.67;;;12.90;99.90;;;;;;4849440;29;20194;-77
2022/05/04 07:32:42;;;;;;;7.83;5.97;;;13.00;99.90;;;;;;4864617;29;20242;-77
2022/05/04 07:35:08;;;;;;;7.50;6.07;;;13.10;99.90;;;;;;4849377;29;20211;-77
2022/05/04 07:37:34;;;;;;;8.80;6.40;;;13.00;99.90;;;;;;4849636;29;20282;-77
2022/05/04 07:42:45;;;;;;;7.20;6.37;;;13.20;99.90;;;;;;4882186;29;20223;-77
2022/05/04 07:45:12;;;;;;;8.97;6.80;;;13.30;99.90;;;;;;4848757;29;20206;-78
2022/05/04 07:47:38;;;;;;;7.93;6.40;;;13.50;99.90;;;;;;4866435;29;20223;-77
2022/05/04 07:50:07;;;;;;;7.43;6.00;;;13.70;99.90;;;;;;4897325;29;20179;-77
2022/05/04 07:52:33;;;;;;;9.03;6.27;;;13.90;99.90;;;;;;4880327;29;20245;-78
2022/05/04 07:54:59;;;;;;;8.60;6.60;;;13.90;99.90;;;;;;4880311;29;20210;-77
2022/05/04 07:57:25;;;;;;;8.80;6.00;;;13.80;99.90;;;;;;4880417;29;20187;-78
2022/05/04 08:05:24;;;;;;;8.07;6.07;;;14.00;99.90;;;;;;4896408;29;20288;-78
2022/05/04 08:07:51;;;;;;;8.13;6.10;;;14.00;99.90;;;;;;4880543;29;20185;-77
2022/05/04 08:10:17;;;;;;;8.23;6.27;;;14.10;99.90;;;;;;4880188;29;20235;-77
2022/05/04 08:12:42;;;;;;;10.90;6.23;;;14.20;99.90;;;;;;4865119;29;20701;-78
2022/05/04 08:15:09;;;;;;;10.37;6.20;;;14.10;99.90;;;;;;4849482;29;20204;-77
2022/05/04 08:17:34;;;;;;;7.80;6.20;;;13.90;99.90;;;;;;4865018;29;20187;-78
2022/05/04 08:20:00;;;;;;;8.03;6.83;;;13.90;99.90;;;;;;4880455;29;20261;-78
2022/05/04 08:22:26;;;;;;;7.23;6.00;;;13.90;99.90;;;;;;4867625;29;20217;-77
2022/05/04 08:24:52;;;;;;;10.93;6.13;;;13.90;99.90;;;;;;4868069;29;20253;-77
2022/05/04 08:27:19;;;;;;;9.43;7.13;;;14.00;99.90;;;;;;4853017;29;20221;-77
2022/05/04 08:29:45;;;;;;;8.70;6.47;;;14.10;99.90;;;;;;4852891;29;20659;-77
2022/05/04 08:32:11;;;;;;;8.37;6.57;;;14.00;99.90;;;;;;4867839;29;20225;-77
2022/05/04 08:34:37;;;;;;;7.73;6.20;;;14.10;99.90;;;;;;4883169;29;20683;-77
2022/05/04 08:37:03;;;;;;;8.20;6.60;;;14.30;99.90;;;;;;4868139;29;20187;-77
2022/05/04 08:39:29;;;;;;;7.70;6.07;;;14.40;99.90;;;;;;4868116;29;20183;-77
2022/05/04 08:41:55;;;;;;;10.43;6.50;;;14.50;99.90;;;;;;4852322;29;20222;-78
2022/05/04 08:44:21;;;;;;;7.97;6.40;;;14.80;99.90;;;;;;4868037;29;20205;-78
2022/05/04 08:46:47;;;;;;;7.10;6.20;;;15.10;99.90;;;;;;4883048;29;20662;-78
2022/05/04 08:49:13;;;;;;;8.00;6.87;;;15.10;99.90;;;;;;4898680;29;20183;-77
2022/05/04 08:51:40;;;;;;;7.60;6.40;;;15.30;99.90;;;;;;4883422;29;20193;-78
2022/05/04 08:54:07;;;;;;;8.67;7.20;;;15.30;99.90;;;;;;4883009;29;20210;-78
2022/05/04 08:56:34;;;;;;;8.03;6.83;;;15.20;99.90;;;;;;4899847;29;20183;-78
2022/05/04 08:59:04;;;;;;;6.63;5.93;;;15.10;99.90;;;;;;4883048;29;20214;-77
2022/05/04 09:01:37;;;;;;;8.17;6.70;;;15.10;99.90;;;;;;4883067;29;20207;-77
2022/05/04 09:04:03;;;;;;;7.30;6.50;;;15.10;99.90;;;;;;4882626;29;20211;-77
2022/05/04 09:06:31;;;;;;;7.80;6.47;;;15.10;99.90;;;;;;4867290;29;20194;-77
2022/05/04 09:09:04;;;;;;;8.77;6.60;;;15.20;99.90;;;;;;4867520;29;20195;-77
2022/05/04 09:11:32;;;;;;;8.07;7.27;;;15.30;99.90;;;;;;4868083;29;20183;-78
2022/05/04 09:13:58;;;;;;;7.10;6.40;;;15.30;99.90;;;;;;4882524;29;20187;-78
2022/05/04 09:16:32;;;;;;;7.93;7.13;;;15.40;99.90;;;;;;4867462;29;20665;-78
2022/05/04 09:19:05;;;;;;;8.50;7.23;;;15.30;99.90;;;;;;4867229;29;20187;-78
2022/05/04 09:21:31;;;;;;;9.30;7.47;;;15.30;99.90;;;;;;4898420;29;20252;-78
2022/05/04 09:23:57;;;;;;;7.80;6.93;;;15.30;99.90;;;;;;4866962;29;20650;-78
2022/05/04 09:26:23;;;;;;;9.60;7.33;;;15.30;99.90;;;;;;4899925;29;20194;-78
2022/05/04 09:28:59;;;;;;;7.73;6.93;;;15.20;99.90;;;;;;4882655;29;20179;-78
2022/05/04 09:31:26;;;;;;;8.53;6.83;;;15.30;99.90;;;;;;4899020;29;20191;-77
2022/05/04 09:33:54;;;;;;;8.33;7.00;;;15.20;99.90;;;;;;4867109;29;20665;-77
2022/05/04 09:44:54;;;;;;;11.50;7.30;;;15.30;99.90;;;;;;4882538;29;20301;-78
2022/05/04 09:45:13;;;;;;;10.30;7.23;;;15.80;99.90;;;;;;4884888;29;20283;-78
2022/05/04 09:47:41;;;;;;;21.03;13.57;;;16.20;99.90;;;;;;4882322;29;20179;-77
2022/05/04 09:50:09;;;;;;;11.63;9.87;;;16.50;99.90;;;;;;4866988;29;20187;-77
2022/05/04 09:53:02;;;;;;;12.33;9.13;;;16.90;99.90;;;;;;4882060;29;20179;-77
2022/05/04 09:55:28;;;;;;;14.80;10.77;;;17.10;99.90;;;;;;4879964;29;20234;-77
2022/05/04 09:57:55;;;;;;;53.00;29.80;;;17.10;99.90;;;;;;4851477;29;20187;-76
2022/05/04 10:00:24;;;;;;;181.10;84.57;;;16.90;99.90;;;;;;4866797;29;20190;-77
2022/05/04 10:02:52;;;;;;;11.03;8.67;;;17.10;99.90;;;;;;4881573;29;20214;-78
2022/05/04 10:05:19;;;;;;;13.30;9.53;;;17.10;99.90;;;;;;4866557;29;20207;-78
2022/05/04 10:07:49;;;;;;;13.27;7.30;;;17.40;99.90;;;;;;4881762;29;20642;-78
2022/05/04 10:10:18;;;;;;;11.67;8.33;;;17.40;99.90;;;;;;4882030;29;20662;-77
2022/05/04 10:12:44;;;;;;;85.57;35.93;;;17.10;99.90;;;;;;4866313;29;20654;-77
2022/05/04 10:15:14;;;;;;;9.70;8.47;;;17.10;99.90;;;;;;4897310;29;20674;-77
2022/05/04 10:18:05;;;;;;;7.97;7.17;;;17.30;99.90;;;;;;4851305;29;20238;-77
2022/05/04 10:20:45;;;;;;;8.83;7.33;;;17.20;99.90;;;;;;4881422;29;20187;-77
2022/05/04 10:23:24;;;;;;;13.40;9.20;;;17.20;99.90;;;;;;4881554;29;20175;-78
2022/05/04 10:25:52;;;;;;;11.73;9.00;;;17.20;99.90;;;;;;4881260;29;20275;-77
2022/05/04 10:28:18;;;;;;;10.60;8.70;;;17.00;99.90;;;;;;4866231;29;20182;-77
2022/05/04 10:30:55;;;;;;;8.53;7.63;;;17.10;99.90;;;;;;4881489;29;20226;-77
2022/05/04 10:33:25;;;;;;;8.77;7.80;;;16.90;99.90;;;;;;4881362;29;20175;-77
2022/05/04 10:35:51;;;;;;;9.97;8.53;;;16.90;99.90;;;;;;4881411;29;20191;-77
2022/05/04 10:38:24;;;;;;;9.10;8.20;;;17.20;99.90;;;;;;4865924;29;20183;-77
2022/05/04 10:40:58;;;;;;;8.63;7.83;;;17.20;99.90;;;;;;4898015;29;20147;-77
2022/05/04 10:43:37;;;;;;;9.67;8.27;;;17.20;99.90;;;;;;4865009;29;20183;-77
2022/05/04 10:46:18;;;;;;;16.43;10.97;;;17.10;99.90;;;;;;4896949;29;20578;-77
2022/05/04 10:48:59;;;;;;;9.20;8.40;;;17.40;99.90;;;;;;4881517;29;20266;-77
2022/05/04 10:51:30;;;;;;;9.20;8.30;;;17.70;99.90;;;;;;4865879;29;20721;-77
2022/05/04 10:54:07;;;;;;;9.07;8.13;;;17.60;99.90;;;;;;4896500;29;20183;-77
2022/05/04 10:56:44;;;;;;;8.80;7.90;;;17.60;99.90;;;;;;4866640;29;20189;-78
2022/05/04 10:59:11;;;;;;;9.50;8.60;;;17.60;99.90;;;;;;4866367;29;20646;-77
2022/05/04 11:01:39;;;;;;;9.90;8.30;;;17.50;99.90;;;;;;4876972;29;20260;-77
2022/05/04 11:04:10;;;;;;;9.63;8.70;;;17.80;99.90;;;;;;4876695;29;20179;-77
2022/05/04 11:06:38;;;;;;;9.97;7.80;;;17.90;99.90;;;;;;4896351;29;20658;-78
2022/05/04 11:09:10;;;;;;;11.67;8.17;;;18.20;99.90;;;;;;4881271;29;20190;-77
2022/05/04 11:11:40;;;;;;;7.87;7.17;;;18.10;99.90;;;;;;4865349;29;20191;-78
2022/05/04 11:14:08;;;;;;;10.07;8.47;;;18.20;99.90;;;;;;4881328;29;20195;-77
2022/05/04 11:16:34;;;;;;;8.67;7.57;;;18.40;99.90;;;;;;4865343;29;20197;-77
2022/05/04 11:19:02;;;;;;;8.87;8.03;;;18.80;99.90;;;;;;4865396;29;20250;-77
2022/05/04 11:21:29;;;;;;;7.97;7.17;;;19.10;99.90;;;;;;4849842;29;20682;-77
2022/05/04 11:23:58;;;;;;;7.97;7.17;;;19.20;99.90;;;;;;4880814;29;20612;-77
2022/05/04 11:26:38;;;;;;;7.40;6.70;;;19.70;99.90;;;;;;4865759;29;20194;-77
2022/05/04 11:29:13;;;;;;;7.37;6.77;;;20.20;99.90;;;;;;4897486;29;20694;-78
2022/05/04 11:31:54;;;;;;;7.87;7.17;;;20.20;99.90;;;;;;4881400;29;20198;-78
2022/05/04 11:34:24;;;;;;;8.20;6.33;;;20.40;99.90;;;;;;4893533;29;20206;-78
2022/05/04 11:36:53;;;;;;;6.73;6.10;;;20.40;99.90;;;;;;4865504;29;20187;-78
2022/05/04 11:39:26;;;;;;;7.20;6.50;;;20.50;99.90;;;;;;4880403;29;20183;-77
2022/05/04 11:41:54;;;;;;;6.37;5.80;;;20.80;99.90;;;;;;4849590;29;20301;-77
2022/05/04 11:44:21;;;;;;;6.60;5.90;;;20.70;99.90;;;;;;4880553;29;20203;-78
2022/05/04 11:46:58;;;;;;;6.23;5.63;;;20.80;99.90;;;;;;4865361;29;20187;-77
2022/05/04 11:49:27;;;;;;;5.77;4.83;;;21.30;99.90;;;;;;4880591;29;20182;-78
2022/05/04 11:51:54;;;;;;;5.23;4.73;;;21.20;99.90;;;;;;4849700;29;20243;-78
2022/05/04 11:54:20;;;;;;;5.27;4.50;;;20.90;99.90;;;;;;4865007;29;20203;-78
2022/05/04 11:56:46;;;;;;;5.20;4.75;;;21.20;99.90;;;;;;4899514;29;20529;-78
2022/05/04 11:59:12;;;;;;;5.07;4.60;;;21.50;99.90;;;;;;4868842;29;20195;-78
2022/05/04 12:01:38;;;;;;;4.93;4.38;;;21.70;99.90;;;;;;4884135;29;20753;-78
2022/05/04 12:04:05;;;;;;;5.43;4.43;;;22.00;99.90;;;;;;4883903;29;20670;-77
2022/05/04 12:06:33;;;;;;;4.90;3.95;;;22.40;99.90;;;;;;4865256;29;20184;-78
2022/05/04 12:08:59;;;;;;;5.55;4.40;;;22.40;99.90;;;;;;4850313;29;20191;-77
2022/05/04 12:11:25;;;;;;;4.78;4.30;;;22.90;99.90;;;;;;4865313;29;20243;-78
2022/05/04 12:13:52;;;;;;;4.40;4.10;;;22.70;99.90;;;;;;4880895;29;20184;-78
2022/05/04 12:16:18;;;;;;;4.07;3.78;;;22.50;99.90;;;;;;4865385;29;20337;-78
2022/05/04 12:18:44;;;;;;;3.90;3.60;;;22.80;99.90;;;;;;4850162;29;20188;-78
2022/05/04 12:21:12;;;;;;;4.55;4.15;;;22.80;99.60;;;;;;4865148;29;20212;-78
2022/05/04 12:23:43;;;;;;;4.57;4.15;;;23.10;99.90;;;;;;4865153;29;20179;-77
2022/05/04 12:26:11;;;;;;;4.60;4.18;;;23.20;99.60;;;;;;4865043;29;20732;-78
2022/05/04 12:28:41;;;;;;;5.45;4.75;;;23.00;98.50;;;;;;4850072;29;20187;-78
2022/05/04 12:34:03;;;;;;;5.07;4.50;;;23.30;99.90;;;;;;4881484;29;20184;-78
2022/05/04 12:36:30;;;;;;;5.32;4.38;;;23.10;98.60;;;;;;4898940;29;20179;-78
2022/05/04 12:38:55;;;;;;;6.15;4.75;;;22.60;98.50;;;;;;4883733;29;20194;-78
2022/05/04 12:41:24;;;;;;;4.53;4.13;;;22.10;99.90;;;;;;4868243;29;20202;-78
2022/05/04 12:43:51;;;;;;;4.25;3.75;;;22.00;99.90;;;;;;4898684;29;20639;-78
2022/05/04 12:46:19;;;;;;;6.97;4.65;;;22.50;99.90;;;;;;4877305;29;20203;-78
2022/05/04 12:48:47;;;;;;;5.50;4.50;;;22.80;99.90;;;;;;4897718;29;20171;-78
2022/05/04 12:51:16;;;;;;;6.65;4.47;;;23.10;99.90;;;;;;4883526;29;20670;-78
2022/05/04 12:53:44;;;;;;;5.15;4.50;;;22.50;99.00;;;;;;4867527;29;20191;-78
2022/05/04 12:59:08;;;;;;;4.70;4.28;;;23.00;99.90;;;;;;4842151;29;20187;-78
2022/05/04 13:01:36;;;;;;;5.18;4.78;;;23.10;98.80;;;;;;4882991;29;20213;-78
2022/05/04 13:04:02;;;;;;;4.97;4.50;;;23.50;98.40;;;;;;4883030;29;20175;-78
2022/05/04 13:06:28;;;;;;;5.28;4.72;;;24.00;99.90;;;;;;4882241;29;20182;-78
2022/05/04 13:08:54;;;;;;;5.32;4.82;;;24.30;97.00;;;;;;4867440;29;20171;-78
2022/05/04 13:11:21;;;;;;;5.10;4.70;;;24.40;95.90;;;;;;4899516;29;20176;-78
2022/05/04 13:13:47;;;;;;;5.03;4.57;;;24.70;97.20;;;;;;4898233;29;20187;-78
2022/05/04 13:16:13;;;;;;;5.40;4.82;;;24.90;97.30;;;;;;4882672;29;20258;-78
2022/05/04 13:18:39;;;;;;;5.45;4.95;;;25.10;97.10;;;;;;4867460;29;20278;-78
2022/05/04 13:21:06;;;;;;;5.28;4.78;;;24.70;96.70;;;;;;4867398;29;20187;-78
2022/05/04 13:23:32;;;;;;;5.35;4.85;;;24.10;96.40;;;;;;4852031;29;20205;-77